Time;durP1;ratioP1;P1;durP2;ratioP2;P2;SDS_P1;SDS_P2;PMS_P1;PMS_P2;Temp;Humidity;BMP_temperature;BMP_pressure;BME280_temperature;BME280_humidity;BME280_pressure;Samples;Min_cycle;Max_cycle;Signal;HPM_P1;HPM_P2
2023/08/07 00:00:03;;;;;;;;;;;15.00;66.90;;;;;;4188043;28;19969;-83
2023/08/07 00:02:06;;;;;;;;;;;15.00;66.80;;;;;;4183937;28;19913;-82
2023/08/07 00:04:07;;;;;;;;;;;15.00;67.20;;;;;;4200848;28;19992;-83
2023/08/07 00:06:07;;;;;;;;;;;15.00;67.20;;;;;;4205305;28;19913;-82
2023/08/07 00:08:08;;;;;;;;;;;15.00;68.00;;;;;;4199795;28;20015;-84
2023/08/07 00:10:09;;;;;;;;;;;15.00;67.90;;;;;;4204831;28;19917;-82
2023/08/07 00:12:11;;;;;;;;;;;15.00;67.80;;;;;;4173454;28;19909;-82
2023/08/07 00:14:12;;;;;;;;;;;14.90;67.70;;;;;;4205693;28;19958;-83
2023/08/07 00:16:12;;;;;;;;;;;14.90;68.50;;;;;;4182897;28;19951;-83
2023/08/07 00:18:13;;;;;;;;;;;14.90;68.00;;;;;;4185725;28;19916;-83
2023/08/07 00:20:13;;;;;;;;;;;14.80;68.30;;;;;;4208572;28;19991;-83
2023/08/07 00:22:14;;;;;;;;;;;14.80;68.20;;;;;;4182596;28;20375;-82
2023/08/07 00:24:15;;;;;;;;;;;14.90;69.80;;;;;;4181543;28;19913;-82
2023/08/07 00:26:15;;;;;;;;;;;14.80;69.00;;;;;;4183875;28;19912;-83
2023/08/07 00:28:16;;;;;;;;;;;14.80;69.20;;;;;;4201191;28;19924;-84
2023/08/07 00:30:17;;;;;;;;;;;14.80;68.90;;;;;;4183140;28;19913;-84
2023/08/07 00:32:18;;;;;;;;;;;14.80;69.30;;;;;;4202640;28;19954;-83
2023/08/07 00:34:19;;;;;;;;;;;14.70;69.40;;;;;;4204122;28;19916;-83
2023/08/07 00:36:20;;;;;;;;;;;14.70;69.40;;;;;;4187927;28;19970;-83
2023/08/07 00:38:21;;;;;;;;;;;14.70;69.80;;;;;;4185561;28;20382;-82
2023/08/07 00:40:21;;;;;;;;;;;14.70;69.90;;;;;;4188317;28;19912;-83
2023/08/07 00:42:25;;;;;;;;;;;14.70;70.20;;;;;;4229598;22;19981;-85
2023/08/07 00:44:46;;;;;;;;;;;14.70;70.10;;;;;;4207318;28;19916;-86
2023/08/07 00:46:47;;;;;;;;;;;14.70;69.90;;;;;;4194823;28;19923;-86
2023/08/07 00:48:47;;;;;;;;;;;14.70;70.20;;;;;;4196352;28;19923;-86
2023/08/07 00:50:48;;;;;;;;;;;14.70;70.30;;;;;;4208103;28;19916;-85
2023/08/07 00:52:48;;;;;;;;;;;14.80;70.30;;;;;;4211317;28;19912;-85
2023/08/07 00:54:49;;;;;;;;;;;14.70;70.50;;;;;;4211106;28;19954;-88
2023/08/07 00:56:50;;;;;;;;;;;14.70;70.50;;;;;;4175718;28;19975;-86
2023/08/07 00:58:50;;;;;;;;;;;14.70;71.60;;;;;;4209314;28;20023;-85
2023/08/07 01:00:51;;;;;;;;;;;14.60;71.00;;;;;;4210507;28;19919;-88
2023/08/07 01:02:53;;;;;;;;;;;14.60;71.00;;;;;;4211879;28;20011;-85
2023/08/07 01:04:54;;;;;;;;;;;14.70;71.40;;;;;;4210363;28;19920;-87
2023/08/07 01:06:55;;;;;;;;;;;14.60;71.60;;;;;;4198816;28;19912;-86
2023/08/07 01:08:56;;;;;;;;;;;14.60;71.30;;;;;;4182337;28;19975;-85
2023/08/07 01:11:17;;;;;;;;;;;14.60;72.00;;;;;;4196319;28;19923;-85
2023/08/07 01:13:34;;;;;;;;;;;14.60;71.70;;;;;;4199354;28;19913;-85
2023/08/07 01:15:37;;;;;;;;;;;14.50;72.10;;;;;;4210065;28;19974;-86
2023/08/07 01:17:38;;;;;;;;;;;14.60;73.10;;;;;;4207092;28;19922;-86
2023/08/07 01:19:40;;;;;;;;;;;14.50;73.50;;;;;;4209453;28;19908;-86
2023/08/07 01:21:43;;;;;;;;;;;14.60;73.10;;;;;;4188365;28;19912;-88
2023/08/07 01:23:45;;;;;;;;;;;14.50;73.20;;;;;;4193382;28;19915;-85
2023/08/07 01:25:46;;;;;;;;;;;14.50;73.30;;;;;;4209503;28;19969;-85
2023/08/07 01:27:53;;;;;;;;;;;14.50;73.90;;;;;;4211300;28;19924;-84
2023/08/07 01:29:53;;;;;;;;;;;14.50;73.50;;;;;;4197408;28;19943;-86
2023/08/07 01:31:55;;;;;;;;;;;14.50;73.50;;;;;;4189052;28;19917;-86
2023/08/07 01:34:18;;;;;;;;;;;14.60;73.50;;;;;;4206154;28;19933;-86
2023/08/07 01:36:20;;;;;;;;;;;14.50;73.80;;;;;;4193948;28;19913;-87
2023/08/07 01:38:41;;;;;;;;;;;14.60;74.40;;;;;;4199529;28;19912;-85
2023/08/07 01:40:44;;;;;;;;;;;14.40;74.10;;;;;;4191225;28;19917;-84
2023/08/07 01:43:05;;;;;;;;;;;14.50;74.20;;;;;;4193573;28;20017;-85
2023/08/07 01:45:26;;;;;;;;;;;14.50;74.20;;;;;;4207556;28;19999;-85
2023/08/07 01:47:46;;;;;;;;;;;14.50;74.10;;;;;;4201208;28;19909;-86
2023/08/07 01:50:07;;;;;;;;;;;14.50;74.20;;;;;;4203506;28;19971;-85
2023/08/07 01:52:27;;;;;;;;;;;14.50;74.70;;;;;;4204215;28;19962;-87
2023/08/07 01:54:48;;;;;;;;;;;14.50;74.30;;;;;;4213070;28;19919;-85
2023/08/07 01:57:09;;;;;;;;;;;14.50;74.50;;;;;;4206317;28;19912;-85
2023/08/07 01:59:29;;;;;;;;;;;14.50;74.40;;;;;;4200827;28;19920;-85
2023/08/07 02:01:50;;;;;;;;;;;14.50;74.50;;;;;;4210867;28;19911;-86
2023/08/07 02:04:10;;;;;;;;;;;14.50;74.80;;;;;;4208510;28;19912;-87
2023/08/07 02:06:31;;;;;;;;;;;14.50;74.60;;;;;;4208719;28;19983;-85
2023/08/07 02:08:51;;;;;;;;;;;14.50;74.80;;;;;;4209963;28;20053;-87
2023/08/07 02:11:12;;;;;;;;;;;14.40;74.90;;;;;;4208491;28;19997;-85
2023/08/07 02:13:32;;;;;;;;;;;14.40;74.80;;;;;;4193654;28;20433;-85
2023/08/07 02:15:53;;;;;;;;;;;14.50;74.90;;;;;;4203575;28;19912;-87
2023/08/07 02:18:13;;;;;;;;;;;14.50;74.80;;;;;;4198061;28;20097;-85
2023/08/07 02:20:34;;;;;;;;;;;14.50;74.90;;;;;;4192415;28;19947;-87
2023/08/07 02:22:54;;;;;;;;;;;14.50;74.60;;;;;;4199094;28;19923;-87
2023/08/07 02:25:15;;;;;;;;;;;14.50;74.90;;;;;;4212973;28;20605;-85
2023/08/07 02:27:16;;;;;;;;;;;14.40;75.00;;;;;;4189162;28;19963;-86
2023/08/07 02:29:16;;;;;;;;;;;14.60;75.00;;;;;;4191232;28;20006;-86
2023/08/07 02:31:17;;;;;;;;;;;14.50;74.70;;;;;;4210007;28;19914;-85
2023/08/07 02:33:18;;;;;;;;;;;14.50;74.90;;;;;;4210177;28;19920;-86
2023/08/07 02:35:26;;;;;;;;;;;14.60;75.10;;;;;;4191982;28;19923;-87
2023/08/07 02:37:27;;;;;;;;;;;14.50;74.90;;;;;;4192736;28;19955;-86
2023/08/07 02:39:47;;;;;;;;;;;14.50;74.90;;;;;;4208924;28;19919;-86
2023/08/07 02:41:49;;;;;;;;;;;14.50;74.80;;;;;;4205775;28;19916;-86
2023/08/07 02:44:09;;;;;;;;;;;14.40;74.80;;;;;;4196598;28;19921;-87
2023/08/07 02:46:30;;;;;;;;;;;14.50;74.70;;;;;;4207899;28;19923;-86
2023/08/07 02:48:51;;;;;;;;;;;14.60;74.80;;;;;;4196736;28;19923;-86
2023/08/07 02:51:11;;;;;;;;;;;14.50;74.90;;;;;;4206689;28;19923;-85
2023/08/07 02:53:32;;;;;;;;;;;14.50;74.90;;;;;;4207996;28;19998;-87
2023/08/07 02:55:53;;;;;;;;;;;14.50;75.00;;;;;;4207387;28;19948;-86
2023/08/07 02:58:13;;;;;;;;;;;14.50;75.10;;;;;;4205042;28;19923;-86
2023/08/07 03:00:14;;;;;;;;;;;14.60;75.10;;;;;;4205900;28;19908;-85
2023/08/07 03:02:14;;;;;;;;;;;14.50;75.00;;;;;;4208708;28;19915;-88
2023/08/07 03:04:15;;;;;;;;;;;14.60;75.20;;;;;;4209755;28;19916;-86
2023/08/07 03:06:15;;;;;;;;;;;14.60;75.20;;;;;;4190613;28;20345;-86
2023/08/07 03:08:16;;;;;;;;;;;14.50;75.20;;;;;;4206447;28;20165;-86
2023/08/07 03:10:17;;;;;;;;;;;14.60;75.20;;;;;;4172533;28;19979;-88
2023/08/07 03:12:17;;;;;;;;;;;14.60;75.90;;;;;;4191230;28;19916;-87
2023/08/07 03:14:18;;;;;;;;;;;14.60;75.30;;;;;;4190985;28;19920;-86
2023/08/07 03:16:18;;;;;;;;;;;14.70;75.30;;;;;;4208041;28;19912;-86
2023/08/07 03:18:19;;;;;;;;;;;14.60;75.30;;;;;;4202575;28;19915;-86
2023/08/07 03:20:19;;;;;;;;;;;14.60;75.30;;;;;;4204451;28;20023;-87
2023/08/07 03:22:20;;;;;;;;;;;14.60;75.00;;;;;;4175848;28;19913;-89
2023/08/07 03:24:22;;;;;;;;;;;14.70;75.20;;;;;;4205100;28;20014;-87
2023/08/07 03:26:23;;;;;;;;;;;14.60;75.10;;;;;;4169964;28;19959;-85
2023/08/07 03:28:24;;;;;;;;;;;14.60;75.10;;;;;;4192631;28;19913;-86
2023/08/07 03:30:25;;;;;;;;;;;14.60;75.10;;;;;;4189363;28;19913;-86
2023/08/07 03:32:28;;;;;;;;;;;14.70;75.20;;;;;;4195433;28;19935;-88
2023/08/07 03:34:28;;;;;;;;;;;14.70;75.30;;;;;;4209214;28;19909;-87
2023/08/07 03:36:29;;;;;;;;;;;14.60;75.40;;;;;;4207683;28;20007;-86
2023/08/07 03:38:29;;;;;;;;;;;14.70;75.60;;;;;;4204090;28;19934;-85
2023/08/07 03:40:30;;;;;;;;;;;14.60;75.50;;;;;;4192328;28;19916;-86
2023/08/07 03:42:31;;;;;;;;;;;14.60;75.60;;;;;;4207646;28;20290;-85
2023/08/07 03:44:33;;;;;;;;;;;14.60;75.60;;;;;;4205510;28;20003;-85
2023/08/07 03:46:33;;;;;;;;;;;14.60;75.50;;;;;;4207645;28;20396;-85
2023/08/07 03:48:34;;;;;;;;;;;14.60;76.60;;;;;;4202943;28;19955;-84
2023/08/07 03:50:37;;;;;;;;;;;14.70;75.80;;;;;;4189194;28;19909;-86
2023/08/07 03:52:38;;;;;;;;;;;14.70;75.80;;;;;;4207047;28;19915;-85
2023/08/07 03:54:38;;;;;;;;;;;14.60;75.40;;;;;;4210974;28;20002;-85
2023/08/07 03:56:51;;;;;;;;;;;14.60;75.30;;;;;;4208698;28;19916;-85
2023/08/07 03:58:52;;;;;;;;;;;14.60;75.20;;;;;;4195017;28;19920;-87
2023/08/07 04:01:12;;;;;;;;;;;14.60;75.10;;;;;;4192038;28;20397;-85
2023/08/07 04:03:13;;;;;;;;;;;14.70;75.10;;;;;;4206675;28;19912;-85
2023/08/07 04:05:34;;;;;;;;;;;14.80;75.00;;;;;;4210365;28;19913;-85
2023/08/07 04:07:54;;;;;;;;;;;14.70;74.70;;;;;;4201920;28;19912;-85
2023/08/07 04:10:15;;;;;;;;;;;14.70;74.60;;;;;;4208780;28;20386;-85
2023/08/07 04:12:35;;;;;;;;;;;14.70;74.40;;;;;;4196702;28;20377;-85
2023/08/07 04:14:56;;;;;;;;;;;14.70;74.40;;;;;;4194252;28;19994;-85
2023/08/07 04:17:17;;;;;;;;;;;14.70;74.20;;;;;;4211059;28;20578;-88
2023/08/07 04:19:38;;;;;;;;;;;14.70;74.10;;;;;;4207863;28;19912;-86
2023/08/07 04:21:58;;;;;;;;;;;14.70;74.10;;;;;;4198794;28;19912;-86
2023/08/07 04:24:19;;;;;;;;;;;14.80;74.00;;;;;;4194594;28;20495;-85
2023/08/07 04:26:39;;;;;;;;;;;14.70;73.80;;;;;;4213034;28;20395;-86
2023/08/07 04:28:40;;;;;;;;;;;14.70;73.50;;;;;;4211268;28;19912;-85
2023/08/07 04:30:40;;;;;;;;;;;14.80;73.60;;;;;;4211152;28;19908;-86
2023/08/07 04:32:41;;;;;;;;;;;14.70;73.40;;;;;;4198599;28;19938;-85
2023/08/07 04:34:42;;;;;;;;;;;14.70;73.30;;;;;;4215145;28;20021;-86
2023/08/07 04:36:42;;;;;;;;;;;14.70;73.20;;;;;;4218351;28;19912;-86
2023/08/07 04:39:03;;;;;;;;;;;14.80;73.20;;;;;;4201095;28;19916;-86
2023/08/07 04:41:03;;;;;;;;;;;14.70;72.90;;;;;;4197966;28;19920;-85
2023/08/07 04:43:04;;;;;;;;;;;14.80;72.80;;;;;;4212740;28;19916;-85
2023/08/07 04:45:09;;;;;;;;;;;14.70;72.70;;;;;;4180223;28;19927;-84
2023/08/07 04:47:30;;;;;;;;;;;14.70;72.60;;;;;;4197512;28;20471;-85
2023/08/07 04:49:44;;;;;;;;;;;14.70;72.50;;;;;;4210464;28;19913;-84
2023/08/07 04:52:05;;;;;;;;;;;14.80;72.40;;;;;;4209393;28;20335;-87
2023/08/07 04:54:25;;;;;;;;;;;14.80;72.30;;;;;;4217033;28;20372;-86
2023/08/07 04:56:46;;;;;;;;;;;14.70;72.20;;;;;;4213734;28;19948;-86
2023/08/07 04:59:06;;;;;;;;;;;14.80;72.10;;;;;;4213219;28;20357;-85
2023/08/07 05:01:27;;;;;;;;;;;14.90;71.90;;;;;;4202673;28;19919;-86
2023/08/07 05:03:47;;;;;;;;;;;14.90;71.90;;;;;;4211761;28;20305;-86
2023/08/07 05:06:08;;;;;;;;;;;14.80;71.70;;;;;;4200467;28;19923;-86
2023/08/07 05:08:28;;;;;;;;;;;14.80;71.70;;;;;;4213109;28;19985;-85
2023/08/07 05:10:49;;;;;;;;;;;14.90;72.40;;;;;;4206179;28;19912;-85
2023/08/07 05:13:10;;;;;;;;;;;14.90;71.50;;;;;;4200391;28;19916;-85
2023/08/07 05:15:31;;;;;;;;;;;14.90;71.50;;;;;;4212836;28;20266;-86
2023/08/07 05:17:51;;;;;;;;;;;14.90;71.40;;;;;;4216026;28;20305;-85
2023/08/07 05:20:12;;;;;;;;;;;15.00;71.50;;;;;;4219889;28;19915;-86
2023/08/07 05:22:32;;;;;;;;;;;14.90;71.20;;;;;;4203435;28;19923;-88
2023/08/07 05:24:53;;;;;;;;;;;14.90;71.30;;;;;;4218527;28;19955;-89
2023/08/07 05:27:14;;;;;;;;;;;14.90;71.20;;;;;;4215174;28;20313;-86
2023/08/07 05:29:14;;;;;;;;;;;15.00;71.20;;;;;;4218518;28;19912;-85
2023/08/07 05:31:15;;;;;;;;;;;15.00;71.30;;;;;;4222072;28;19921;-86
2023/08/07 05:33:15;;;;;;;;;;;14.90;71.10;;;;;;4206344;28;20002;-88
2023/08/07 05:35:16;;;;;;;;;;;15.10;71.20;;;;;;4201404;28;19913;-87
2023/08/07 05:37:16;;;;;;;;;;;15.00;71.10;;;;;;4224479;28;20099;-86
2023/08/07 05:39:17;;;;;;;;;;;15.10;71.20;;;;;;4221289;28;19916;-88
2023/08/07 05:41:18;;;;;;;;;;;15.00;71.10;;;;;;4221006;28;19909;-89
2023/08/07 05:43:19;;;;;;;;;;;15.10;71.10;;;;;;4216280;28;20018;-86
2023/08/07 05:45:19;;;;;;;;;;;15.00;71.00;;;;;;4225535;28;20391;-86
2023/08/07 05:47:20;;;;;;;;;;;15.10;71.10;;;;;;4222920;28;19947;-87
2023/08/07 05:49:21;;;;;;;;;;;15.10;71.10;;;;;;4205360;28;20402;-85
2023/08/07 05:51:42;;;;;;;;;;;15.10;71.10;;;;;;4216331;28;19920;-85
2023/08/07 05:54:02;;;;;;;;;;;15.10;71.10;;;;;;4218561;28;19917;-86
2023/08/07 05:56:23;;;;;;;;;;;15.10;71.10;;;;;;4217921;28;19919;-86
2023/08/07 05:58:44;;;;;;;;;;;15.20;71.20;;;;;;4222029;28;20340;-88
2023/08/07 06:00:47;;;;;;;;;;;15.10;71.20;;;;;;4224973;28;19919;-89
2023/08/07 06:03:08;;;;;;;;;;;15.20;71.20;;;;;;4222153;28;19912;-87
2023/08/07 06:05:29;;;;;;;;;;;15.30;71.20;;;;;;4209702;28;20274;-86
2023/08/07 06:07:50;;;;;;;;;;;15.20;71.20;;;;;;4225795;28;20281;-87
2023/08/07 06:10:10;;;;;;;;;;;15.20;71.70;;;;;;4216280;28;19922;-86
2023/08/07 06:12:31;;;;;;;;;;;15.30;70.90;;;;;;4217720;28;19919;-88
2023/08/07 06:14:52;;;;;;;;;;;15.40;71.00;;;;;;4218577;28;20346;-85
2023/08/07 06:17:12;;;;;;;;;;;15.30;70.80;;;;;;4215691;28;19908;-86
2023/08/07 06:19:33;;;;;;;;;;;15.50;70.70;;;;;;4215010;28;20414;-85
2023/08/07 06:21:54;;;;;;;;;;;15.50;70.30;;;;;;4217663;28;19912;-86
2023/08/07 06:24:14;;;;;;;;;;;15.40;70.20;;;;;;4218786;28;20384;-88
2023/08/07 06:26:35;;;;;;;;;;;15.50;70.10;;;;;;4220999;28;20412;-85
2023/08/07 06:28:55;;;;;;;;;;;15.50;70.00;;;;;;4208692;28;19908;-85
2023/08/07 06:31:16;;;;;;;;;;;15.60;69.70;;;;;;4209904;28;20343;-87
2023/08/07 06:33:37;;;;;;;;;;;15.60;69.40;;;;;;4208090;28;19938;-88
2023/08/07 06:35:57;;;;;;;;;;;15.60;69.20;;;;;;4217171;28;20410;-85
2023/08/07 06:37:59;;;;;;;;;;;15.70;68.80;;;;;;4199631;28;20385;-86
2023/08/07 06:39:59;;;;;;;;;;;15.70;68.70;;;;;;4182770;28;19913;-85
2023/08/07 06:42:00;;;;;;;;;;;15.70;68.40;;;;;;4213250;28;19912;-87
2023/08/07 06:44:01;;;;;;;;;;;15.70;68.30;;;;;;4221120;22;20322;-84
2023/08/07 06:46:01;;;;;;;;;;;15.70;67.90;;;;;;4183301;28;19960;-84
2023/08/07 06:48:04;;;;;;;;;;;15.80;67.50;;;;;;4201143;28;21836;-82
2023/08/07 06:50:05;;;;;;;;;;;15.70;67.30;;;;;;4180270;28;20009;-85
2023/08/07 06:52:10;;;;;;;;;;;15.80;67.10;;;;;;4187550;28;19970;-83
2023/08/07 06:54:12;;;;;;;;;;;15.80;66.60;;;;;;4165865;28;20418;-83
2023/08/07 06:56:32;;;;;;;;;;;15.80;67.20;;;;;;4175848;28;20337;-84
2023/08/07 06:58:53;;;;;;;;;;;15.80;66.50;;;;;;4180827;28;19920;-83
2023/08/07 07:01:13;;;;;;;;;;;15.80;66.20;;;;;;4163881;28;20330;-81
2023/08/07 07:03:34;;;;;;;;;;;15.90;66.30;;;;;;4177721;28;19916;-86
2023/08/07 07:05:55;;;;;;;;;;;15.90;66.50;;;;;;4162616;28;19929;-84
2023/08/07 07:08:15;;;;;;;;;;;15.90;66.20;;;;;;4164631;28;19913;-84
2023/08/07 07:10:36;;;;;;;;;;;16.00;66.00;;;;;;4179878;28;20060;-84
2023/08/07 07:12:56;;;;;;;;;;;16.00;66.10;;;;;;4178175;28;19983;-83
2023/08/07 07:15:17;;;;;;;;;;;16.00;65.70;;;;;;4176815;28;19982;-84
2023/08/07 07:17:38;;;;;;;;;;;16.00;65.80;;;;;;4175796;28;19909;-84
2023/08/07 07:19:58;;;;;;;;;;;16.00;65.90;;;;;;4175901;28;19938;-83
2023/08/07 07:22:19;;;;;;;;;;;16.10;65.80;;;;;;4163123;28;20000;-84
2023/08/07 07:24:39;;;;;;;;;;;16.10;66.00;;;;;;4175587;28;19952;-84
2023/08/07 07:27:00;;;;;;;;;;;16.10;66.10;;;;;;4179588;28;19923;-83
2023/08/07 07:29:00;;;;;;;;;;;16.10;66.20;;;;;;4160039;28;19917;-85
2023/08/07 07:31:01;;;;;;;;;;;16.10;66.30;;;;;;4145687;28;19921;-84
2023/08/07 07:33:01;;;;;;;;;;;16.10;66.20;;;;;;4182520;28;20151;-83
2023/08/07 07:35:03;;;;;;;;;;;16.20;66.30;;;;;;4179555;28;19932;-85
2023/08/07 07:37:05;;;;;;;;;;;16.20;66.40;;;;;;4159533;28;19963;-84
2023/08/07 07:39:06;;;;;;;;;;;16.20;66.30;;;;;;4151393;28;19913;-85
2023/08/07 07:41:11;;;;;;;;;;;16.30;66.40;;;;;;4182481;28;19909;-87
2023/08/07 07:43:20;;;;;;;;;;;16.20;66.30;;;;;;4183439;28;19912;-85
2023/08/07 07:45:41;;;;;;;;;;;16.30;66.40;;;;;;4181266;28;19919;-85
2023/08/07 07:48:02;;;;;;;;;;;16.20;66.40;;;;;;4163749;28;19921;-85
2023/08/07 07:50:23;;;;;;;;;;;16.30;66.40;;;;;;4170844;28;19921;-85
2023/08/07 07:52:43;;;;;;;;;;;16.30;66.10;;;;;;4179676;28;19935;-86
2023/08/07 07:55:05;;;;;;;;;;;16.40;65.80;;;;;;4185636;28;19974;-85
2023/08/07 07:57:26;;;;;;;;;;;16.40;65.80;;;;;;4182202;28;19935;-86
2023/08/07 07:59:46;;;;;;;;;;;16.40;65.70;;;;;;4171180;28;19959;-84
2023/08/07 08:02:08;;;;;;;;;;;16.40;65.50;;;;;;4178488;28;19916;-84
2023/08/07 08:04:28;;;;;;;;;;;16.40;65.30;;;;;;4174873;28;19936;-84
2023/08/07 08:06:49;;;;;;;;;;;16.50;64.80;;;;;;4165429;28;19916;-85
2023/08/07 08:08:54;;;;;;;;;;;16.50;64.80;;;;;;4182906;28;19916;-84
2023/08/07 08:11:15;;;;;;;;;;;16.40;64.50;;;;;;4167953;28;19917;-85
2023/08/07 08:13:38;;;;;;;;;;;16.40;64.50;;;;;;4183498;28;20145;-85
2023/08/07 08:15:59;;;;;;;;;;;16.50;64.30;;;;;;4165976;28;20000;-86
2023/08/07 08:18:20;;;;;;;;;;;16.40;64.20;;;;;;4179173;28;20595;-85
2023/08/07 08:20:40;;;;;;;;;;;16.40;63.80;;;;;;4183555;28;19920;-85
2023/08/07 08:23:01;;;;;;;;;;;16.40;63.60;;;;;;4169119;28;19932;-85
2023/08/07 08:25:21;;;;;;;;;;;16.40;63.50;;;;;;4178372;28;19913;-84
2023/08/07 08:27:42;;;;;;;;;;;16.50;63.40;;;;;;4181555;28;19913;-85
2023/08/07 08:30:03;;;;;;;;;;;16.50;63.60;;;;;;4164642;28;19933;-84
2023/08/07 08:32:23;;;;;;;;;;;16.50;63.70;;;;;;4169397;28;19917;-85
2023/08/07 08:34:45;;;;;;;;;;;16.50;63.40;;;;;;4167548;28;19988;-83
2023/08/07 08:36:46;;;;;;;;;;;16.60;63.40;;;;;;4184297;28;19908;-85
2023/08/07 08:38:48;;;;;;;;;;;16.50;62.90;;;;;;4151809;28;19909;-84
2023/08/07 08:40:50;;;;;;;;;;;16.60;63.30;;;;;;4180569;28;20444;-84
2023/08/07 08:42:53;;;;;;;;;;;16.60;63.10;;;;;;4184150;28;19909;-84
2023/08/07 08:44:59;;;;;;;;;;;16.70;63.40;;;;;;4163991;28;20679;-87
2023/08/07 08:46:59;;;;;;;;;;;16.60;63.20;;;;;;4183938;28;20301;-84
2023/08/07 08:49:01;;;;;;;;;;;16.60;63.00;;;;;;4179385;28;19917;-86
2023/08/07 08:51:03;;;;;;;;;;;16.70;63.20;;;;;;4181801;28;19967;-85
2023/08/07 08:53:04;;;;;;;;;;;16.70;62.50;;;;;;4183018;28;20537;-85
2023/08/07 08:55:06;;;;;;;;;;;16.70;62.70;;;;;;4181285;28;19988;-85
2023/08/07 08:57:07;;;;;;;;;;;16.80;62.70;;;;;;4160839;28;19913;-86
2023/08/07 08:59:08;;;;;;;;;;;16.90;63.00;;;;;;4162568;28;19927;-85
2023/08/07 09:01:29;;;;;;;;;;;17.00;62.60;;;;;;4163849;28;19920;-83
2023/08/07 09:03:30;;;;;;;;;;;16.90;62.50;;;;;;4181209;28;19932;-85
2023/08/07 09:05:52;;;;;;;;;;;17.00;62.10;;;;;;4178511;28;19913;-84
2023/08/07 09:07:53;;;;;;;;;;;17.00;61.60;;;;;;4164086;28;19960;-86
2023/08/07 09:10:14;;;;;;;;;;;17.10;61.60;;;;;;4182407;28;19916;-84
2023/08/07 09:12:38;;;;;;;;;;;17.20;61.80;;;;;;4178227;28;20646;-85
2023/08/07 09:15:00;;;;;;;;;;;17.20;62.50;;;;;;4168797;28;19913;-86
2023/08/07 09:17:23;;;;;;;;;;;17.20;62.70;;;;;;4180981;28;20397;-85
2023/08/07 09:19:44;;;;;;;;;;;17.30;62.80;;;;;;4172857;28;20000;-84
2023/08/07 09:22:04;;;;;;;;;;;17.40;62.10;;;;;;4176863;28;19967;-84
2023/08/07 09:24:05;;;;;;;;;;;17.40;61.20;;;;;;4177731;28;19919;-85
2023/08/07 09:26:06;;;;;;;;;;;17.40;60.40;;;;;;4178509;28;19916;-85
2023/08/07 09:28:09;;;;;;;;;;;17.50;59.80;;;;;;4178507;28;20008;-84
2023/08/07 09:30:10;;;;;;;;;;;17.60;59.70;;;;;;4179631;28;19909;-84
2023/08/07 09:32:14;;;;;;;;;;;17.50;59.60;;;;;;4146695;28;19914;-84
2023/08/07 09:34:19;;;;;;;;;;;17.50;59.00;;;;;;4161663;28;19921;-84
2023/08/07 09:36:19;;;;;;;;;;;17.50;58.90;;;;;;4180984;28;19917;-86
2023/08/07 09:38:22;;;;;;;;;;;17.50;58.10;;;;;;4178098;28;19939;-85
2023/08/07 09:40:23;;;;;;;;;;;17.50;57.60;;;;;;4175619;28;19917;-86
2023/08/07 09:42:23;;;;;;;;;;;17.50;57.70;;;;;;4172816;28;19949;-86
2023/08/07 09:44:24;;;;;;;;;;;17.60;58.20;;;;;;4182110;28;19921;-84
2023/08/07 09:46:26;;;;;;;;;;;17.50;57.80;;;;;;4179100;28;20392;-86
2023/08/07 09:48:28;;;;;;;;;;;17.60;57.90;;;;;;4159152;28;19940;-86
2023/08/07 09:50:31;;;;;;;;;;;17.60;58.00;;;;;;4180299;28;19909;-87
2023/08/07 09:52:51;;;;;;;;;;;17.50;57.90;;;;;;4177538;28;19912;-85
2023/08/07 09:54:56;;;;;;;;;;;17.50;57.00;;;;;;4148621;28;19917;-85
2023/08/07 09:57:17;;;;;;;;;;;17.50;56.90;;;;;;4174267;28;19917;-85
2023/08/07 09:59:37;;;;;;;;;;;17.50;57.40;;;;;;4162446;28;19937;-88
2023/08/07 10:01:59;;;;;;;;;;;17.50;57.00;;;;;;4177717;28;19915;-85
2023/08/07 10:04:20;;;;;;;;;;;17.50;57.00;;;;;;4162715;28;19916;-86
2023/08/07 10:06:42;;;;;;;;;;;17.40;57.00;;;;;;4177625;28;19920;-85
2023/08/07 10:09:03;;;;;;;;;;;17.40;57.20;;;;;;4175984;28;19921;-85
2023/08/07 10:11:24;;;;;;;;;;;17.30;57.30;;;;;;4175822;28;19917;-84
2023/08/07 10:13:45;;;;;;;;;;;17.30;57.40;;;;;;4177711;28;19966;-86
2023/08/07 10:16:06;;;;;;;;;;;17.40;57.20;;;;;;4182896;28;19935;-85
2023/08/07 10:18:26;;;;;;;;;;;17.30;57.30;;;;;;4162995;28;19913;-84
2023/08/07 10:20:47;;;;;;;;;;;17.40;56.80;;;;;;4173814;28;20019;-87
2023/08/07 10:23:08;;;;;;;;;;;17.40;57.00;;;;;;4161656;28;20076;-86
2023/08/07 10:25:29;;;;;;;;;;;17.40;57.20;;;;;;4163212;28;19914;-85
2023/08/07 10:27:32;;;;;;;;;;;17.50;57.60;;;;;;4191982;28;19932;-87
2023/08/07 10:29:33;;;;;;;;;;;17.40;57.80;;;;;;4198377;28;19916;-87
2023/08/07 10:31:34;;;;;;;;;;;17.40;58.00;;;;;;4184273;28;20329;-86
2023/08/07 10:33:36;;;;;;;;;;;17.50;58.00;;;;;;4177191;28;19984;-85
2023/08/07 10:35:59;;;;;;;;;;;17.50;58.00;;;;;;4175824;28;19917;-87
2023/08/07 10:38:22;;;;;;;;;;;17.50;57.80;;;;;;4180664;28;19920;-84
2023/08/07 10:40:58;;;;;;;;;;;17.50;57.90;;;;;;4179625;28;19916;-86
2023/08/07 10:43:18;;;;;;;;;;;17.50;58.30;;;;;;4178726;28;19916;-85
2023/08/07 10:45:39;;;;;;;;;;;17.50;59.00;;;;;;4179568;28;19912;-87
2023/08/07 10:48:12;;;;;;;;;;;17.50;59.20;;;;;;4166170;28;19913;-85
2023/08/07 10:50:34;;;;;;;;;;;17.40;59.30;;;;;;4180103;28;19995;-85
2023/08/07 10:52:54;;;;;;;;;;;17.50;59.80;;;;;;4174879;28;19923;-85
2023/08/07 10:55:15;;;;;;;;;;;17.50;59.20;;;;;;4168515;28;19909;-85
2023/08/07 10:57:39;;;;;;;;;;;17.40;58.80;;;;;;4166358;28;19913;-86
2023/08/07 11:00:00;;;;;;;;;;;17.30;58.50;;;;;;4164851;28;19916;-85
2023/08/07 11:02:00;;;;;;;;;;;17.30;57.90;;;;;;4179545;28;20359;-87
2023/08/07 11:04:05;;;;;;;;;;;17.30;57.30;;;;;;4160967;28;19956;-88
2023/08/07 11:06:06;;;;;;;;;;;17.30;57.30;;;;;;4159645;28;20019;-86
2023/08/07 11:08:07;;;;;;;;;;;17.30;57.10;;;;;;4177961;28;20394;-85
2023/08/07 11:10:08;;;;;;;;;;;17.20;56.80;;;;;;4178765;28;19987;-85
2023/08/07 11:12:09;;;;;;;;;;;17.20;57.00;;;;;;4163021;28;19916;-86
2023/08/07 11:14:11;;;;;;;;;;;17.30;57.00;;;;;;4181696;28;19917;-88
2023/08/07 11:16:11;;;;;;;;;;;17.30;57.60;;;;;;4166835;28;19932;-87
2023/08/07 11:18:12;;;;;;;;;;;17.30;57.80;;;;;;4183537;28;20401;-86
2023/08/07 11:20:13;;;;;;;;;;;17.30;57.50;;;;;;4168350;28;19916;-85
2023/08/07 11:22:16;;;;;;;;;;;17.30;57.40;;;;;;4171621;28;19913;-85
2023/08/07 11:24:18;;;;;;;;;;;17.30;57.50;;;;;;4184868;28;19912;-84
2023/08/07 11:26:23;;;;;;;;;;;17.30;57.80;;;;;;4182877;28;20350;-85
2023/08/07 11:28:24;;;;;;;;;;;17.40;58.00;;;;;;4173677;28;20043;-88
2023/08/07 11:30:25;;;;;;;;;;;17.40;58.00;;;;;;4160432;28;19917;-85
2023/08/07 11:32:30;;;;;;;;;;;17.30;57.80;;;;;;4167228;28;19921;-88
2023/08/07 11:34:31;;;;;;;;;;;17.40;57.20;;;;;;4166839;28;19932;-87
2023/08/07 11:36:33;;;;;;;;;;;17.30;57.30;;;;;;4182661;28;19959;-86
2023/08/07 11:38:42;;;;;;;;;;;17.30;57.50;;;;;;4164874;28;20309;-85
2023/08/07 11:40:45;;;;;;;;;;;17.30;58.10;;;;;;4153282;28;19921;-86
2023/08/07 11:42:46;;;;;;;;;;;17.30;58.40;;;;;;4167177;28;19971;-85
2023/08/07 11:44:47;;;;;;;;;;;17.30;58.50;;;;;;4183169;28;19924;-86
2023/08/07 11:47:08;;;;;;;;;;;17.30;58.30;;;;;;4169088;28;19917;-85
2023/08/07 11:49:10;;;;;;;;;;;17.40;58.40;;;;;;4156197;28;19917;-85
2023/08/07 11:51:30;;;;;;;;;;;17.40;58.30;;;;;;4167012;28;19917;-85
2023/08/07 11:53:56;;;;;;;;;;;17.40;57.70;;;;;;4182329;28;19910;-84
2023/08/07 11:56:18;;;;;;;;;;;17.30;57.20;;;;;;4182884;28;19939;-85
2023/08/07 11:58:48;;;;;;;;;;;17.30;57.00;;;;;;4177721;28;21833;-85
2023/08/07 12:01:12;;;;;;;;;;;17.30;57.10;;;;;;4180039;28;19912;-85
2023/08/07 12:03:38;;;;;;;;;;;17.30;57.20;;;;;;4169657;28;19928;-88
2023/08/07 12:06:01;;;;;;;;;;;17.20;57.60;;;;;;4183302;28;19924;-85
2023/08/07 12:08:22;;;;;;;;;;;17.30;57.80;;;;;;4162636;28;19918;-86
2023/08/07 12:10:42;;;;;;;;;;;17.20;57.50;;;;;;4184055;28;19938;-85
2023/08/07 12:13:04;;;;;;;;;;;17.30;57.70;;;;;;4182532;28;19912;-85
2023/08/07 12:15:27;;;;;;;;;;;17.40;57.80;;;;;;4167234;28;19950;-84
2023/08/07 12:17:48;;;;;;;;;;;17.40;58.00;;;;;;4181174;28;19953;-84
2023/08/07 12:20:11;;;;;;;;;;;17.50;58.40;;;;;;4170611;28;20000;-85
2023/08/07 12:22:32;;;;;;;;;;;17.50;58.50;;;;;;4181491;28;19909;-84
2023/08/07 12:24:53;;;;;;;;;;;17.60;58.30;;;;;;4182610;28;19919;-86
2023/08/07 12:27:14;;;;;;;;;;;17.70;58.20;;;;;;4182331;28;19917;-84
2023/08/07 12:29:35;;;;;;;;;;;17.80;57.80;;;;;;4178186;28;19913;-86
2023/08/07 12:31:55;;;;;;;;;;;17.90;56.80;;;;;;4180701;28;19908;-85
2023/08/07 12:34:16;;;;;;;;;;;17.90;56.60;;;;;;4164420;28;19924;-85
2023/08/07 12:36:37;;;;;;;;;;;18.00;56.60;;;;;;4177565;28;19912;-88
2023/08/07 12:38:38;;;;;;;;;;;17.90;56.90;;;;;;4163121;28;20343;-85
2023/08/07 12:40:38;;;;;;;;;;;18.00;57.30;;;;;;4178642;28;19916;-86